createdAt,value
2022-11-02T00:01:27.151Z,6.88
2022-11-02T00:05:31.070Z,6.85
2022-11-02T00:09:34.070Z,6.40
2022-11-02T00:13:37.100Z,6.53
2022-11-02T00:17:50.007Z,7.15
2022-11-02T00:21:52.960Z,8.55
2022-11-02T00:26:00.691Z,5.47
2022-11-02T00:30:05.516Z,7.75
2022-11-02T00:34:08.273Z,9.43
2022-11-02T00:38:10.988Z,8.90
2022-11-02T00:42:13.884Z,9.20
2022-11-02T00:46:16.672Z,12.05
2022-11-02T00:50:19.426Z,14.27
2022-11-02T00:54:25.906Z,14.15
2022-11-02T00:58:31.582Z,14.85
2022-11-02T01:02:35.134Z,16.38
2022-11-02T01:06:38.410Z,14.13
2022-11-02T01:10:44.086Z,14.48
2022-11-02T01:14:50.819Z,15.52
2022-11-02T01:18:55.268Z,14.05
2022-11-02T01:22:59.264Z,11.70
2022-11-02T01:27:02.540Z,9.82
2022-11-02T01:31:06.963Z,8.35
2022-11-02T01:35:11.830Z,7.20
2022-11-02T01:39:15.575Z,10.10
2022-11-02T01:43:24.467Z,7.90
2022-11-02T01:47:34.981Z,8.88
2022-11-02T01:51:49.435Z,6.93
2022-11-02T01:55:52.795Z,8.50
2022-11-02T02:00:08.302Z,9.30
2022-11-02T02:04:20.893Z,5.75
2022-11-02T02:08:25.600Z,7.85
2022-11-02T02:12:29.679Z,7.18
2022-11-02T02:17:03.397Z,7.32
2022-11-02T02:21:40.101Z,5.10
2022-11-02T02:25:52.121Z,5.22
2022-11-02T02:29:55.542Z,6.43
2022-11-02T02:34:21.028Z,4.97
2022-11-02T02:38:40.098Z,7.05
2022-11-02T02:43:05.524Z,7.53
2022-11-02T02:47:17.141Z,6.47
2022-11-02T02:51:25.901Z,8.05
2022-11-02T02:55:35.862Z,5.00
2022-11-02T02:59:48.722Z,5.57
2022-11-02T03:03:54.984Z,7.18
2022-11-02T03:08:17.963Z,4.63
2022-11-02T03:12:50.257Z,6.28
2022-11-02T03:17:18.866Z,5.53
2022-11-02T03:21:43.854Z,6.75
2022-11-02T03:26:03.730Z,7.78
2022-11-02T03:30:17.534Z,8.07
2022-11-02T03:34:24.917Z,7.63
2022-11-02T03:38:44.572Z,7.72
2022-11-02T03:42:51.117Z,6.30
2022-11-02T03:47:00.238Z,7.40
2022-11-02T03:51:10.630Z,10.00
2022-11-02T03:55:20.653Z,10.30
2022-11-02T03:59:23.693Z,7.20
2022-11-02T04:03:28.471Z,7.05
2022-11-02T04:07:58.465Z,8.20
2022-11-02T04:12:22.051Z,6.80
2022-11-02T04:16:28.380Z,7.00
2022-11-02T04:20:33.400Z,7.75
2022-11-02T04:24:54.620Z,7.72
2022-11-02T04:28:58.513Z,7.13
2022-11-02T04:33:19.815Z,7.40
2022-11-02T04:37:48.326Z,6.43
2022-11-02T04:41:51.493Z,8.60
2022-11-02T04:46:13.883Z,7.03
2022-11-02T04:50:17.046Z,5.32
2022-11-02T04:54:20.569Z,7.70
2022-11-02T04:58:28.512Z,7.93
2022-11-02T05:02:32.201Z,8.40
2022-11-02T05:06:35.097Z,6.90
2022-11-02T05:10:39.019Z,8.60
2022-11-02T05:14:42.707Z,7.50
2022-11-02T05:18:45.845Z,7.57
2022-11-02T05:22:50.849Z,7.97
2022-11-02T05:26:55.281Z,7.20
2022-11-02T05:31:02.247Z,6.95
2022-11-02T05:35:08.635Z,7.05
2022-11-02T05:39:11.323Z,7.55
2022-11-02T05:43:16.624Z,6.95
2022-11-02T05:47:20.276Z,8.70
2022-11-02T05:51:23.113Z,6.28
2022-11-02T05:55:25.825Z,8.00
2022-11-02T05:59:30.874Z,5.70
2022-11-02T06:03:36.218Z,9.20
2022-11-02T06:07:38.993Z,6.55
2022-11-02T06:11:41.846Z,6.65
2022-11-02T06:15:44.688Z,7.55
2022-11-02T06:19:47.498Z,8.35
2022-11-02T06:23:50.855Z,7.28
2022-11-02T06:27:56.708Z,8.23
2022-11-02T06:32:03.725Z,8.18
2022-11-02T06:36:07.325Z,14.95
2022-11-02T06:40:11.126Z,8.30
2022-11-02T06:44:13.855Z,13.23
2022-11-02T06:48:17.104Z,10.45
2022-11-02T06:52:20.037Z,6.43
2022-11-02T06:56:22.999Z,6.40
2022-11-02T07:00:26.141Z,6.65
2022-11-02T07:04:28.914Z,9.00
2022-11-02T07:08:31.825Z,10.27
2022-11-02T07:12:34.994Z,11.55
2022-11-02T07:16:37.919Z,12.77
2022-11-02T07:20:41.092Z,13.75
2022-11-02T07:24:44.032Z,13.20
2022-11-02T07:28:47.270Z,10.35
2022-11-02T07:32:50.215Z,13.45
2022-11-02T07:36:54.131Z,11.65
2022-11-02T07:40:57.008Z,10.35
2022-11-02T07:45:02.262Z,13.48
2022-11-02T07:49:06.090Z,16.75
2022-11-02T07:53:09.680Z,12.32
2022-11-02T07:57:12.552Z,13.02
2022-11-02T08:01:15.622Z,12.05
2022-11-02T08:05:18.548Z,11.20
2022-11-02T08:09:21.613Z,12.40
2022-11-02T08:13:26.152Z,11.00
2022-11-02T08:17:29.122Z,17.38
2022-11-02T08:21:32.112Z,13.18
2022-11-02T08:25:35.874Z,12.48
2022-11-02T08:29:38.810Z,13.30
2022-11-02T08:33:47.448Z,14.98
2022-11-02T08:37:58.114Z,15.65
2022-11-02T08:42:02.993Z,11.10
2022-11-02T08:46:14.710Z,13.25
2022-11-02T08:50:18.629Z,10.93
2022-11-02T08:54:21.558Z,10.20
2022-11-02T08:58:24.632Z,11.02
2022-11-02T09:02:29.423Z,10.48
2022-11-02T09:06:32.852Z,12.70
2022-11-02T09:10:37.221Z,10.45
2022-11-02T09:14:40.177Z,10.48
2022-11-02T09:18:45.738Z,9.88
2022-11-02T09:22:49.155Z,10.77
2022-11-02T09:26:53.731Z,9.23
2022-11-02T09:30:56.724Z,10.00
2022-11-02T09:35:01.248Z,10.27
2022-11-02T09:39:04.605Z,11.13
2022-11-02T09:43:13.266Z,10.07
2022-11-02T09:48:03.113Z,10.18
2022-11-02T09:51:46.283Z,10.55
2022-11-02T09:55:56.967Z,9.35
2022-11-02T10:00:00.095Z,8.10
2022-11-02T10:04:35.217Z,8.20
2022-11-02T10:08:59.853Z,7.88
2022-11-02T10:13:29.165Z,8.88
2022-11-02T10:17:37.317Z,11.20
2022-11-02T10:21:43.545Z,9.65
2022-11-02T10:25:48.255Z,7.80
2022-11-02T10:30:05.973Z,7.82
2022-11-02T10:34:26.196Z,6.97
2022-11-02T10:38:38.701Z,7.15
2022-11-02T10:43:06.136Z,8.98
2022-11-02T10:47:09.849Z,7.43
2022-11-02T10:51:22.786Z,8.95
2022-11-02T10:56:31.137Z,8.25
2022-11-02T11:00:38.435Z,7.13
2022-11-02T11:04:55.242Z,6.80
2022-11-02T11:09:07.552Z,8.73
2022-11-02T11:22:35.676Z,6.53
2022-11-02T11:26:43.634Z,7.30
2022-11-02T11:31:05.089Z,7.45
2022-11-02T11:35:23.774Z,7.60
2022-11-02T11:39:33.448Z,5.80
2022-11-02T11:43:41.105Z,9.13
2022-11-02T11:47:44.436Z,8.27
2022-11-02T11:51:55.187Z,7.00
2022-11-02T11:56:01.523Z,7.03
2022-11-02T12:00:34.687Z,9.45
2022-11-02T12:04:42.024Z,9.48
2022-11-02T12:09:18.225Z,5.35
2022-11-02T12:13:43.967Z,7.30
2022-11-02T12:17:55.725Z,7.10
2022-11-02T12:22:45.590Z,9.07
2022-11-02T12:27:42.026Z,6.40
2022-11-02T12:37:26.531Z,8.18
2022-11-02T12:41:38.462Z,12.60
2022-11-02T12:45:52.546Z,6.75
2022-11-02T12:50:24.813Z,7.47
2022-11-02T12:55:01.997Z,7.88
2022-11-02T12:59:07.579Z,5.18
2022-11-02T13:03:35.140Z,7.83
2022-11-02T13:07:59.750Z,6.40
2022-11-02T13:22:49.599Z,6.32
2022-11-02T13:27:21.973Z,8.75
2022-11-02T13:31:36.649Z,5.07
2022-11-02T13:35:47.501Z,4.68
2022-11-02T13:39:54.725Z,4.80
2022-11-02T13:44:22.690Z,5.03
2022-11-02T13:49:07.758Z,4.30
2022-11-02T13:53:35.037Z,4.03
2022-11-02T13:57:51.646Z,5.38
2022-11-02T14:01:57.348Z,6.95
2022-11-02T14:06:10.458Z,5.43
2022-11-02T14:10:23.038Z,5.00
2022-11-02T14:14:26.537Z,5.65
2022-11-02T14:25:04.388Z,7.97
2022-11-02T14:34:54.340Z,5.90
2022-11-02T14:39:49.564Z,5.65
2022-11-02T14:44:34.425Z,5.18
2022-11-02T14:49:15.636Z,6.65
2022-11-02T14:53:30.186Z,6.47
2022-11-02T14:57:40.497Z,4.70
2022-11-02T15:02:22.387Z,5.13
2022-11-02T15:06:45.071Z,5.30
2022-11-02T15:12:01.820Z,5.00
2022-11-02T15:16:11.011Z,6.60
2022-11-02T15:20:30.797Z,6.07
2022-11-02T15:39:39.665Z,8.00
2022-11-02T15:44:20.152Z,5.53
2022-11-02T15:48:40.787Z,6.72
2022-11-02T15:55:32.941Z,6.63
2022-11-02T15:59:15.239Z,7.72
2022-11-02T16:03:36.831Z,6.68
2022-11-02T16:08:53.913Z,7.57
2022-11-02T16:13:23.480Z,11.23
2022-11-02T16:18:00.018Z,6.80
2022-11-02T16:22:26.354Z,7.22
2022-11-02T16:26:57.438Z,6.63
2022-11-02T16:31:19.752Z,5.43
2022-11-02T16:39:59.952Z,6.25
2022-11-02T16:44:30.576Z,4.82
2022-11-02T16:49:26.962Z,11.60
2022-11-02T16:53:34.435Z,5.72
2022-11-02T16:57:50.711Z,6.10
2022-11-02T17:02:12.543Z,5.20
2022-11-02T17:06:23.876Z,8.07
2022-11-02T17:10:35.071Z,4.95
2022-11-02T17:14:56.681Z,5.47
2022-11-02T17:19:15.783Z,5.57
2022-11-02T17:34:23.686Z,6.30
2022-11-02T17:39:07.670Z,8.53
2022-11-02T17:44:35.414Z,5.75
2022-11-02T17:48:41.759Z,5.95
